createdAt,value
2019-05-06T00:00:56.482Z,3.20
2019-05-06T00:03:19.979Z,3.20
2019-05-06T00:05:50.261Z,3.20
2019-05-06T00:08:20.469Z,3.20
2019-05-06T00:10:50.689Z,3.10
2019-05-06T00:13:20.891Z,3.20
2019-05-06T00:15:51.089Z,3.10
2019-05-06T00:18:21.299Z,3.10
2019-05-06T00:20:51.487Z,3.10
2019-05-06T00:23:32.534Z,3.10
2019-05-06T00:26:04.483Z,3.10
2019-05-06T00:28:45.244Z,3.10
2019-05-06T00:31:27.597Z,3.10
2019-05-06T00:33:58.949Z,3.10
2019-05-06T00:36:29.133Z,3.10
2019-05-06T00:39:00.962Z,3.10
2019-05-06T00:41:35.832Z,3.10
2019-05-06T00:44:04.887Z,3.00
2019-05-06T00:46:35.103Z,3.00
2019-05-06T00:49:05.386Z,3.00
2019-05-06T00:51:35.599Z,2.90
2019-05-06T00:54:09.961Z,2.90
2019-05-06T00:56:40.164Z,2.80
2019-05-06T00:59:10.370Z,2.80
2019-05-06T01:01:40.565Z,2.70
2019-05-06T01:04:11.275Z,2.60
2019-05-06T01:06:43.865Z,2.60
2019-05-06T01:09:15.521Z,2.60
2019-05-06T01:11:47.547Z,2.60
2019-05-06T01:14:35.337Z,2.50
2019-05-06T01:17:05.908Z,2.50
2019-05-06T01:19:36.101Z,2.50
2019-05-06T01:22:06.386Z,2.40
2019-05-06T01:24:36.594Z,2.40
2019-05-06T01:27:06.848Z,2.40
2019-05-06T01:29:37.045Z,2.40
2019-05-06T01:32:07.254Z,2.30
2019-05-06T01:34:37.466Z,2.40
2019-05-06T01:37:07.652Z,2.30
2019-05-06T01:39:54.563Z,2.30
2019-05-06T01:42:34.296Z,2.20
2019-05-06T01:45:08.467Z,2.20
2019-05-06T01:47:38.645Z,2.20
2019-05-06T01:50:09.076Z,2.20
2019-05-06T01:52:39.260Z,2.20
2019-05-06T01:55:09.907Z,2.20
2019-05-06T01:57:40.117Z,2.10
2019-05-06T02:00:10.984Z,2.10
2019-05-06T02:02:41.178Z,2.10
2019-05-06T02:05:13.708Z,2.10
2019-05-06T02:07:44.233Z,2.10
2019-05-06T02:10:14.662Z,2.00
2019-05-06T02:12:44.845Z,2.10
2019-05-06T02:15:15.327Z,2.10
2019-05-06T02:17:45.500Z,2.10
2019-05-06T02:20:15.848Z,2.10
2019-05-06T02:22:50.651Z,2.10
2019-05-06T02:25:24.363Z,2.10
2019-05-06T02:27:54.398Z,2.10
2019-05-06T02:30:32.007Z,2.10
2019-05-06T02:33:09.693Z,2.00
2019-05-06T02:35:45.471Z,2.00
2019-05-06T02:38:39.708Z,2.00
2019-05-06T02:41:03.479Z,2.10
2019-05-06T02:43:34.636Z,2.10
2019-05-06T02:46:05.262Z,2.10
2019-05-06T02:48:43.023Z,2.00
2019-05-06T02:51:13.652Z,2.00
2019-05-06T02:53:43.944Z,1.90
2019-05-06T02:56:14.143Z,1.90
2019-05-06T02:58:44.406Z,1.80
2019-05-06T03:01:14.620Z,1.80
2019-05-06T03:03:45.385Z,1.80
2019-05-06T03:06:15.595Z,1.70
2019-05-06T03:08:45.767Z,1.70
2019-05-06T03:11:15.990Z,1.60
2019-05-06T03:13:46.184Z,1.60
2019-05-06T03:16:16.417Z,1.60
2019-05-06T03:18:46.709Z,1.70
2019-05-06T03:21:24.846Z,1.70
2019-05-06T03:23:56.789Z,1.70
2019-05-06T03:26:27.032Z,1.80
2019-05-06T03:28:57.233Z,1.90
2019-05-06T03:31:27.463Z,1.90
2019-05-06T03:34:22.146Z,1.90
2019-05-06T03:36:34.505Z,2.00
2019-05-06T03:39:03.065Z,2.00
2019-05-06T03:41:33.984Z,2.00
2019-05-06T03:44:04.549Z,2.00
2019-05-06T03:46:42.980Z,2.00
2019-05-06T03:49:13.718Z,2.00
2019-05-06T03:51:43.903Z,2.00
2019-05-06T03:54:15.280Z,2.00
2019-05-06T03:56:46.253Z,2.00
2019-05-06T03:59:17.445Z,2.00
2019-05-06T04:01:47.637Z,2.00
2019-05-06T04:04:17.929Z,2.00
2019-05-06T04:06:48.311Z,2.10
2019-05-06T04:09:18.530Z,2.10
2019-05-06T04:11:48.929Z,2.10
2019-05-06T04:14:19.522Z,2.10
2019-05-06T04:16:54.331Z,2.20
2019-05-06T04:19:27.143Z,2.20
2019-05-06T04:22:08.196Z,2.20
2019-05-06T04:24:45.783Z,2.20
2019-05-06T04:27:42.995Z,2.20
2019-05-06T04:30:13.692Z,2.30
2019-05-06T04:32:43.985Z,2.30
2019-05-06T04:35:14.514Z,2.30
2019-05-06T04:37:44.978Z,2.30
2019-05-06T04:40:15.702Z,2.30
2019-05-06T04:42:46.182Z,2.40
2019-05-06T04:45:17.653Z,2.40
2019-05-06T04:47:47.958Z,2.50
2019-05-06T04:50:18.208Z,2.50
2019-05-06T04:52:53.505Z,2.60
2019-05-06T04:55:22.704Z,2.60
2019-05-06T04:57:54.401Z,2.60
2019-05-06T05:00:24.584Z,2.60
2019-05-06T05:02:55.158Z,2.60
2019-05-06T05:05:25.542Z,2.70
2019-05-06T05:07:55.870Z,2.70
2019-05-06T05:10:32.319Z,2.70
2019-05-06T05:13:23.248Z,2.80
2019-05-06T05:16:02.277Z,2.90
2019-05-06T05:18:43.626Z,2.90
2019-05-06T05:21:13.905Z,3.00
2019-05-06T05:23:44.250Z,3.00
2019-05-06T05:26:14.610Z,3.00
2019-05-06T05:28:44.980Z,3.00
2019-05-06T05:31:15.340Z,2.90
2019-05-06T05:33:45.783Z,2.90
2019-05-06T05:36:16.098Z,2.90
2019-05-06T05:38:46.447Z,2.90
2019-05-06T05:41:16.883Z,2.90
2019-05-06T05:43:57.477Z,2.90
2019-05-06T05:46:27.749Z,2.90
2019-05-06T05:49:12.046Z,2.90
2019-05-06T05:51:42.648Z,2.90
2019-05-06T05:54:13.199Z,3.00
2019-05-06T05:56:43.995Z,3.00
2019-05-06T05:59:14.265Z,3.00
2019-05-06T06:01:44.678Z,3.10
2019-05-06T06:04:14.899Z,3.10
2019-05-06T06:06:45.168Z,3.20
2019-05-06T06:09:17.032Z,3.30
2019-05-06T06:11:49.108Z,3.40
2019-05-06T06:14:36.418Z,3.40
2019-05-06T06:17:25.135Z,3.60
2019-05-06T06:20:06.283Z,3.60
2019-05-06T06:22:36.940Z,3.70
2019-05-06T06:25:07.437Z,3.80
2019-05-06T06:27:52.078Z,4.00
2019-05-06T06:30:39.213Z,4.10
2019-05-06T06:33:09.948Z,4.20
2019-05-06T06:35:51.988Z,4.20
2019-05-06T06:38:24.054Z,4.30
2019-05-06T06:40:55.681Z,4.40
2019-05-06T06:43:27.214Z,4.50
2019-05-06T06:45:57.643Z,4.50
2019-05-06T06:48:28.300Z,4.60
2019-05-06T06:50:59.464Z,4.70
2019-05-06T06:53:29.675Z,4.90
2019-05-06T06:56:21.887Z,4.90
2019-05-06T06:59:10.269Z,5.00
2019-05-06T07:01:59.302Z,5.20
2019-05-06T07:04:32.420Z,5.30
2019-05-06T07:07:04.271Z,5.40
2019-05-06T07:09:34.459Z,5.50
2019-05-06T07:12:04.754Z,5.70
2019-05-06T07:14:36.266Z,5.80
2019-05-06T07:17:06.822Z,6.00
2019-05-06T07:19:44.765Z,6.20
2019-05-06T07:22:15.027Z,6.30
2019-05-06T07:24:45.223Z,6.40
2019-05-06T07:27:17.078Z,6.50
2019-05-06T07:29:48.816Z,6.70
2019-05-06T07:32:19.068Z,6.70
2019-05-06T07:34:49.293Z,6.90
2019-05-06T07:37:21.966Z,7.00
2019-05-06T07:39:52.911Z,7.00
2019-05-06T07:42:25.003Z,7.10
2019-05-06T07:44:59.569Z,7.20
2019-05-06T07:47:34.146Z,7.20
2019-05-06T07:50:06.891Z,7.20
2019-05-06T07:52:37.154Z,7.20
2019-05-06T07:55:07.598Z,7.30
2019-05-06T07:57:37.802Z,7.30
2019-05-06T08:00:08.259Z,7.50
2019-05-06T08:02:38.447Z,7.70
2019-05-06T08:05:08.658Z,7.80
2019-05-06T08:07:38.881Z,8.00
2019-05-06T08:10:09.347Z,8.10
2019-05-06T08:12:39.593Z,8.20
2019-05-06T08:15:12.538Z,8.10
2019-05-06T08:17:42.657Z,8.10
2019-05-06T08:20:14.315Z,8.00
2019-05-06T08:22:52.968Z,8.10
2019-05-06T08:25:24.104Z,8.20
2019-05-06T08:27:54.296Z,8.10
2019-05-06T08:30:24.549Z,8.20
2019-05-06T08:32:54.796Z,8.20
2019-05-06T08:35:25.034Z,8.20
2019-05-06T08:37:55.301Z,8.30
2019-05-06T08:40:26.576Z,8.40
2019-05-06T08:42:56.954Z,8.40
2019-05-06T08:45:27.213Z,8.30
2019-05-06T08:47:57.639Z,8.20
2019-05-06T08:50:32.892Z,8.10
2019-05-06T08:53:05.198Z,8.10
2019-05-06T08:55:50.205Z,8.00
2019-05-06T08:58:22.219Z,8.00
2019-05-06T09:01:05.900Z,8.20
2019-05-06T09:03:36.184Z,8.30
2019-05-06T09:06:07.560Z,8.40
2019-05-06T09:08:37.880Z,8.40
2019-05-06T09:11:08.100Z,8.50
2019-05-06T09:13:38.305Z,8.50
2019-05-06T09:16:08.542Z,8.50
2019-05-06T09:18:38.754Z,8.60
2019-05-06T09:21:08.999Z,8.60
2019-05-06T09:23:39.254Z,8.60
2019-05-06T09:26:12.969Z,8.70
2019-05-06T09:28:53.682Z,8.80
2019-05-06T09:31:28.509Z,8.90
2019-05-06T09:34:03.826Z,8.90
2019-05-06T09:36:43.780Z,8.90
2019-05-06T09:39:08.000Z,9.00
2019-05-06T09:41:38.256Z,9.10
2019-05-06T09:44:08.435Z,9.20
2019-05-06T09:46:38.696Z,9.30
2019-05-06T09:49:16.437Z,9.40
2019-05-06T09:51:46.688Z,9.50
2019-05-06T09:54:23.570Z,9.60
2019-05-06T09:56:58.146Z,9.70
2019-05-06T09:59:28.345Z,9.70
2019-05-06T10:01:59.801Z,9.60
2019-05-06T10:04:32.379Z,9.60
2019-05-06T10:07:02.701Z,9.70
2019-05-06T10:09:33.313Z,9.90
2019-05-06T10:12:03.617Z,10.00
2019-05-06T10:14:33.900Z,10.10
2019-05-06T10:17:04.609Z,10.10
2019-05-06T10:19:35.826Z,10.10
2019-05-06T10:22:06.245Z,10.00
2019-05-06T10:24:36.507Z,9.90
2019-05-06T10:27:06.738Z,9.90
2019-05-06T10:29:54.833Z,9.90
2019-05-06T10:32:42.784Z,9.80
2019-05-06T10:35:13.269Z,9.70
2019-05-06T10:37:57.088Z,9.40
2019-05-06T10:40:32.935Z,9.20
2019-05-06T10:43:21.955Z,9.10
2019-05-06T10:45:52.134Z,9.00
2019-05-06T10:48:22.655Z,8.90
2019-05-06T10:50:54.559Z,8.90
2019-05-06T10:53:25.261Z,8.80
2019-05-06T10:56:02.839Z,8.90
2019-05-06T10:58:33.050Z,8.90
2019-05-06T11:01:14.027Z,8.90
2019-05-06T11:03:45.105Z,8.80
2019-05-06T11:06:15.293Z,8.90
2019-05-06T11:08:45.579Z,8.90
2019-05-06T11:11:31.345Z,8.90
2019-05-06T11:13:47.706Z,8.90
2019-05-06T11:16:17.953Z,9.00
2019-05-06T11:18:48.197Z,9.20
2019-05-06T11:21:18.426Z,9.30
2019-05-06T11:23:48.668Z,9.40
2019-05-06T11:26:18.882Z,9.50
2019-05-06T11:28:52.100Z,9.60
2019-05-06T11:31:36.094Z,9.60
2019-05-06T11:34:23.371Z,9.60
2019-05-06T11:37:12.127Z,9.70
2019-05-06T11:39:43.437Z,10.00
2019-05-06T11:42:27.622Z,10.40
2019-05-06T11:44:45.532Z,10.70
2019-05-06T11:47:15.758Z,10.70
2019-05-06T11:49:45.980Z,10.60
2019-05-06T11:52:16.174Z,10.40
2019-05-06T11:54:46.405Z,10.20
2019-05-06T11:57:16.610Z,10.00
2019-05-06T11:59:46.864Z,9.90
2019-05-06T12:02:24.506Z,9.80
2019-05-06T12:04:54.860Z,9.80
2019-05-06T12:07:25.126Z,9.70
2019-05-06T12:09:55.366Z,9.60
2019-05-06T12:12:25.567Z,9.60
2019-05-06T12:14:55.824Z,9.60
2019-05-06T12:17:26.025Z,9.50
2019-05-06T12:19:56.246Z,9.50
2019-05-06T12:22:28.084Z,9.40
2019-05-06T12:24:58.300Z,9.40
2019-05-06T12:27:47.304Z,9.40
2019-05-06T12:30:23.701Z,9.40
2019-05-06T12:33:04.488Z,9.40
2019-05-06T12:35:36.530Z,9.50
2019-05-06T12:38:23.810Z,9.60
2019-05-06T12:40:43.001Z,9.70
2019-05-06T12:43:29.888Z,9.80
2019-05-06T12:46:04.889Z,10.00
2019-05-06T12:48:36.738Z,10.20
2019-05-06T12:51:07.045Z,10.50
2019-05-06T12:53:37.250Z,10.70
2019-05-06T12:56:07.483Z,10.90
2019-05-06T12:58:37.730Z,11.00
2019-05-06T13:01:08.677Z,11.10
2019-05-06T13:03:38.879Z,11.00
2019-05-06T13:06:09.467Z,10.90
2019-05-06T13:08:54.092Z,10.90
2019-05-06T13:11:13.164Z,10.90
2019-05-06T13:13:59.762Z,10.90
2019-05-06T13:16:18.951Z,10.80
2019-05-06T13:18:51.780Z,10.80
2019-05-06T13:21:22.375Z,10.80
2019-05-06T13:23:54.311Z,10.80
2019-05-06T13:26:24.620Z,10.80
2019-05-06T13:28:56.463Z,10.90
2019-05-06T13:31:26.854Z,10.90
2019-05-06T13:34:15.450Z,11.00
2019-05-06T13:36:45.890Z,11.10
2019-05-06T13:39:16.206Z,11.20
2019-05-06T13:41:46.508Z,11.40
2019-05-06T13:44:17.279Z,11.50
2019-05-06T13:46:49.372Z,11.60
2019-05-06T13:49:22.781Z,11.70
2019-05-06T13:51:54.859Z,11.90
2019-05-06T13:54:25.146Z,12.20
2019-05-06T13:56:55.351Z,12.40
2019-05-06T13:59:29.904Z,12.60
2019-05-06T14:02:16.324Z,12.70
2019-05-06T14:04:46.820Z,12.80
2019-05-06T14:07:17.053Z,13.00
2019-05-06T14:09:47.283Z,13.00
2019-05-06T14:12:17.527Z,12.90
2019-05-06T14:14:47.739Z,12.90
2019-05-06T14:17:17.973Z,12.90
2019-05-06T14:19:48.185Z,12.90
2019-05-06T14:22:18.393Z,12.80
2019-05-06T14:24:50.241Z,12.70
2019-05-06T14:27:22.161Z,12.80
2019-05-06T14:30:04.614Z,12.70
2019-05-06T14:32:35.125Z,12.80
2019-05-06T14:35:06.769Z,12.70
2019-05-06T14:37:36.965Z,12.40
2019-05-06T14:40:08.880Z,12.00
2019-05-06T14:42:39.167Z,11.70
2019-05-06T14:45:16.555Z,11.40
2019-05-06T14:47:46.809Z,11.10
2019-05-06T14:50:17.217Z,10.90
2019-05-06T14:52:47.431Z,10.70
2019-05-06T14:55:22.555Z,10.60
2019-05-06T14:57:53.545Z,10.60
2019-05-06T15:00:24.173Z,10.60
2019-05-06T15:02:54.382Z,10.70
2019-05-06T15:05:24.609Z,10.70
2019-05-06T15:07:54.820Z,10.90
2019-05-06T15:10:26.535Z,11.40
2019-05-06T15:12:56.950Z,13.80
2019-05-06T15:15:27.176Z,15.60
2019-05-06T15:17:57.379Z,16.50
2019-05-06T15:20:27.635Z,16.60
2019-05-06T15:22:58.099Z,16.00
2019-05-06T15:25:28.359Z,15.40
2019-05-06T15:27:58.627Z,14.60
2019-05-06T15:30:39.501Z,13.80
2019-05-06T15:33:13.266Z,13.20
2019-05-06T15:36:02.218Z,12.50
2019-05-06T15:38:32.341Z,12.10
2019-05-06T15:41:02.547Z,11.70
2019-05-06T15:43:33.411Z,11.40
2019-05-06T15:46:03.671Z,11.20
2019-05-06T15:48:33.925Z,11.00
2019-05-06T15:51:04.169Z,10.80
2019-05-06T15:53:34.360Z,10.70
2019-05-06T15:56:04.608Z,10.60
2019-05-06T15:58:34.909Z,10.50
2019-05-06T16:01:05.380Z,10.40
2019-05-06T16:03:35.974Z,10.40
2019-05-06T16:06:06.250Z,10.30
2019-05-06T16:08:36.451Z,10.30
2019-05-06T16:11:06.690Z,10.30
2019-05-06T16:13:36.890Z,10.30
2019-05-06T16:16:07.233Z,10.30
2019-05-06T16:18:37.517Z,10.30
2019-05-06T16:21:07.768Z,10.30
2019-05-06T16:23:39.609Z,10.30
2019-05-06T16:26:12.218Z,10.20
2019-05-06T16:28:44.739Z,10.20
2019-05-06T16:31:14.066Z,10.30
2019-05-06T16:33:44.310Z,10.30
2019-05-06T16:36:14.556Z,10.40
2019-05-06T16:38:44.785Z,10.40
2019-05-06T16:41:16.347Z,10.40
2019-05-06T16:43:46.704Z,10.40
2019-05-06T16:46:16.934Z,10.40
2019-05-06T16:48:47.138Z,10.50
2019-05-06T16:51:17.392Z,10.50
2019-05-06T16:53:47.892Z,10.50
2019-05-06T16:56:28.305Z,10.40
2019-05-06T16:59:00.141Z,10.30
2019-05-06T17:01:34.082Z,10.20
2019-05-06T17:04:04.596Z,10.20
2019-05-06T17:06:48.436Z,10.10
2019-05-06T17:09:23.897Z,10.10
2019-05-06T17:11:51.494Z,10.00
2019-05-06T17:14:22.087Z,10.00
2019-05-06T17:16:52.812Z,10.00
2019-05-06T17:19:23.216Z,10.00
2019-05-06T17:21:53.444Z,10.00
2019-05-06T17:24:23.670Z,9.90
2019-05-06T17:26:56.187Z,9.90
2019-05-06T17:29:45.276Z,9.90
2019-05-06T17:32:25.747Z,9.90
2019-05-06T17:34:57.950Z,9.90
2019-05-06T17:37:45.936Z,9.90
2019-05-06T17:40:22.998Z,9.90
2019-05-06T17:42:53.491Z,9.80
2019-05-06T17:45:42.862Z,9.80
2019-05-06T17:48:23.680Z,9.80
2019-05-06T17:51:13.953Z,9.80
2019-05-06T17:53:46.218Z,9.80
2019-05-06T17:56:16.413Z,9.70
2019-05-06T17:58:46.728Z,9.70
2019-05-06T18:01:18.714Z,9.60
2019-05-06T18:03:48.947Z,9.60
2019-05-06T18:06:19.168Z,9.60
2019-05-06T18:08:49.395Z,9.60
2019-05-06T18:11:19.617Z,9.60
2019-05-06T18:13:51.970Z,9.50
2019-05-06T18:16:22.356Z,9.50
2019-05-06T18:18:52.718Z,9.50
2019-05-06T18:21:23.184Z,9.50
2019-05-06T18:23:53.388Z,9.40
2019-05-06T18:26:23.647Z,9.40
2019-05-06T18:28:53.882Z,9.40
2019-05-06T18:31:24.099Z,9.40
2019-05-06T18:33:54.351Z,9.30
2019-05-06T18:36:24.545Z,9.30
2019-05-06T18:38:54.770Z,9.30
2019-05-06T18:41:24.989Z,9.20
2019-05-06T18:43:55.204Z,9.20
2019-05-06T18:46:25.407Z,9.10
2019-05-06T18:48:55.634Z,9.10
2019-05-06T18:51:25.831Z,9.00
2019-05-06T18:53:56.081Z,9.00
2019-05-06T18:56:26.275Z,9.00
2019-05-06T18:58:56.504Z,9.00
2019-05-06T19:01:26.885Z,8.90
2019-05-06T19:07:12.201Z,8.90
2019-05-06T19:09:42.594Z,8.80
2019-05-06T19:12:28.408Z,8.80
2019-05-06T19:14:44.856Z,8.80
2019-05-06T19:17:15.143Z,8.80
2019-05-06T19:19:45.471Z,8.80
2019-05-06T19:22:15.661Z,8.80
2019-05-06T19:24:46.041Z,8.80
2019-05-06T19:27:16.354Z,8.70
2019-05-06T19:29:46.623Z,8.70
2019-05-06T19:32:16.891Z,8.70
2019-05-06T19:34:47.135Z,8.60
2019-05-06T19:37:17.347Z,8.60
2019-05-06T19:39:47.590Z,8.70
2019-05-06T19:42:17.787Z,8.60
2019-05-06T19:44:48.032Z,8.60
2019-05-06T19:47:18.232Z,8.60
2019-05-06T19:49:48.466Z,8.60
2019-05-06T19:52:18.678Z,8.60
2019-05-06T19:55:03.107Z,8.70
2019-05-06T19:57:33.047Z,8.70
2019-05-06T20:00:03.459Z,8.70
2019-05-06T20:02:33.760Z,8.70
2019-05-06T20:05:07.860Z,8.70
2019-05-06T20:07:43.077Z,8.70
2019-05-06T20:10:27.441Z,8.70
2019-05-06T20:13:02.753Z,8.70
2019-05-06T20:15:38.881Z,8.60
2019-05-06T20:18:10.120Z,8.60
2019-05-06T20:20:42.369Z,8.50
2019-05-06T20:23:12.732Z,8.40
2019-05-06T20:25:45.015Z,8.30
2019-05-06T20:28:14.960Z,8.30
2019-05-06T20:30:45.217Z,8.20
2019-05-06T20:33:15.415Z,8.20
2019-05-06T20:35:45.632Z,8.20
2019-05-06T20:38:15.840Z,8.10
2019-05-06T20:40:46.082Z,8.10
2019-05-06T20:43:20.742Z,8.10
2019-05-06T20:45:48.244Z,8.00
2019-05-06T20:48:18.537Z,8.00
2019-05-06T20:50:48.771Z,7.90
2019-05-06T20:53:18.994Z,7.90
2019-05-06T20:55:49.232Z,7.80
2019-05-06T20:58:19.420Z,7.80
2019-05-06T21:00:49.669Z,7.70
2019-05-06T21:03:21.942Z,7.70
2019-05-06T21:05:51.801Z,7.60
2019-05-06T21:08:22.212Z,7.60
2019-05-06T21:10:53.017Z,7.50
2019-05-06T21:13:31.457Z,7.50
2019-05-06T21:15:55.299Z,7.40
2019-05-06T21:18:25.504Z,7.40
2019-05-06T21:20:55.733Z,7.40
2019-05-06T21:23:26.130Z,7.40
2019-05-06T21:25:56.349Z,7.40
2019-05-06T21:28:26.552Z,7.40
2019-05-06T21:30:56.805Z,7.40
2019-05-06T21:33:27.000Z,7.40
2019-05-06T21:35:57.235Z,7.40
2019-05-06T21:38:27.436Z,7.50
2019-05-06T21:40:57.727Z,7.50
2019-05-06T21:43:27.928Z,7.50
2019-05-06T21:45:58.149Z,7.60
2019-05-06T21:48:28.349Z,7.60
2019-05-06T21:50:58.563Z,7.60
2019-05-06T21:53:28.814Z,7.60
2019-05-06T21:55:59.047Z,7.60
2019-05-06T21:58:29.251Z,7.60
2019-05-06T22:01:02.553Z,7.70
2019-05-06T22:03:32.969Z,7.70
2019-05-06T22:06:03.480Z,7.70
2019-05-06T22:08:33.761Z,7.60
2019-05-06T22:11:04.007Z,7.60
2019-05-06T22:13:35.139Z,7.60
2019-05-06T22:16:05.367Z,7.50
2019-05-06T22:18:35.571Z,7.50
2019-05-06T22:21:07.628Z,7.50
2019-05-06T22:23:53.161Z,7.40
2019-05-06T22:26:24.507Z,7.40
2019-05-06T22:28:55.252Z,7.40
2019-05-06T22:31:26.480Z,7.40
2019-05-06T22:33:56.827Z,7.40
2019-05-06T22:36:27.195Z,7.40
2019-05-06T22:38:57.407Z,7.40
2019-05-06T22:41:27.701Z,7.40
2019-05-06T22:44:11.668Z,7.40
2019-05-06T22:46:29.828Z,7.30
2019-05-06T22:49:02.453Z,7.30
2019-05-06T22:51:32.589Z,7.20
2019-05-06T22:54:02.980Z,7.20
2019-05-06T22:56:33.248Z,7.10
2019-05-06T22:59:03.531Z,7.00
2019-05-06T23:01:35.396Z,6.90
2019-05-06T23:04:07.399Z,6.80
2019-05-06T23:06:37.635Z,6.80
2019-05-06T23:09:09.550Z,6.70
2019-05-06T23:11:42.278Z,6.70
2019-05-06T23:14:12.475Z,6.60
2019-05-06T23:16:43.702Z,6.50
2019-05-06T23:19:13.908Z,6.50
2019-05-06T23:21:44.149Z,6.40
2019-05-06T23:24:14.343Z,6.30
2019-05-06T23:26:44.588Z,6.10
2019-05-06T23:29:14.785Z,6.00
2019-05-06T23:31:45.027Z,5.90
2019-05-06T23:34:15.237Z,5.90
2019-05-06T23:37:02.701Z,5.80
2019-05-06T23:40:29.852Z,5.70
2019-05-06T23:43:55.774Z,5.60
2019-05-06T23:47:22.047Z,5.50
2019-05-06T23:50:47.248Z,5.50
2019-05-06T23:54:12.655Z,5.40
2019-05-06T23:56:44.843Z,5.30
2019-05-06T23:59:17.927Z,5.30
